Las Vegas, Nevada (DRI) Weather observations

Data are for observation ending at time listed.
 Day   Time    Ave.   Ave.  Ave.  Vector   Max.   Stn.    Total    Solar   Ave.  
  of    of     Air    Rel.  Wind   Wind    Wind   Baro.  Precip.   Rad.    Soil  
Year   Day     Temp.  Hum.  Speed  Dir.    Gust   Pres.                    Temp. 
2015   (PST)    F      %     mph   deg.    mph     mb.     in.     W/m2     F   
------------------------------------------------------------------------------
 148   14:20   97.9    10    2.1    61      6.7   939.4    0.00     898    86.3
 148   14:30   97.1    10    2.5   148      8.3   939.3    0.00     697    86.5
 148   14:40   97.5    10    2.5   175      7.1   939.2    0.00     813    86.8
 148   14:50   98.3    10    1.7    39      5.0   939.0    0.00     788    87.1
 148   15:00   97.9    10    2.8    60      5.9   938.9    0.00     707    87.4
 148   15:10   96.9    10    4.3   183     10.7   938.7    0.00     692    87.6
 148   15:20   96.9    10    2.9    79      8.3   938.6    0.00     618    87.9
 148   15:30   97.7    10    2.6    45      6.0   938.5    0.00     631    88.2
 148   15:40   97.7    10    2.3    78      6.1   938.5    0.00     546    88.4
 148   15:50   98.2    10    2.1    49      4.9   938.4    0.00     599    88.7
 148   16:00   98.2    10    2.1    51      7.1   938.2    0.00     514    89.0
 148   16:10   97.6    10    1.9    50      6.8   938.1    0.00     413    89.2
 148   16:20   97.6    10    2.3    41      4.9   938.1    0.00     422    89.5
 148   16:30   96.4    10    2.5    51      6.6   938.1    0.00     242    89.7
 148   16:40   96.3    10    1.7   177      7.3   938.0    0.00     204    89.9
 148   16:50   96.1    10    2.2   179      7.8   937.9    0.00     241    90.1
 148   17:00   95.8    10    1.9   175      5.9   937.9    0.00     183    90.3
 148   17:10   95.9    10    1.8    28      7.4   938.0    0.00     148    90.5
 148   17:20   95.5    10    1.6   311      6.4   938.0    0.00     116    90.7
 148   17:30   95.1    10    1.4   332      4.7   938.1    0.00      97    90.8
 148   17:40   94.8    10    1.2   191      5.2   938.1    0.00      88    91.0
 148   17:50   94.2    10    2.2   196      9.4   938.1    0.00      80    91.1
 148   18:00   93.9    10    2.0   186     10.7   938.2    0.00      77    91.2
 148   18:10   93.6    10    2.1   215      6.4   938.4    0.00      61    91.4
 148   18:20   93.0    10    2.9   182     11.5   938.4    0.00      45    91.5
 148   18:30   92.8    10    3.2   173     12.3   938.5    0.00      33    91.5
 148   18:40   92.6    10    2.3   169      7.5   938.6    0.00      21    91.6
 148   18:50   92.0    10    2.2   172      8.8   938.6    0.00       8    91.6
 148   19:00   91.8    10    3.2   173     10.4   938.6    0.00       3    91.7
 148   19:10   91.8    10    7.1   176     13.8   938.7    0.00       2    91.7
 148   19:20   91.5    10    3.7   178      9.6   938.7    0.00       0    91.7
 148   19:30   91.1    11    4.8   180     12.5   938.7    0.00       1    91.7
 148   19:40   91.1    11    5.3   174     11.5   938.8    0.00       0    91.7
 148   19:50   91.1    10    6.9   174     13.0   939.0    0.00       1    91.7
 148   20:00   91.1    10    6.0   176     11.8   939.1    0.00       1    91.6
 148   20:10   91.0    11    4.6   184     11.0   939.2    0.00       1    91.6
 148   20:20   91.1    11    4.9   183     11.8   939.3    0.00       0    91.6
 148   20:30   90.9    11    3.1   204      8.7   939.4    0.00       0    91.5
 148   20:40   90.6    11    3.6   188      7.7   939.4    0.00       1    91.5
 148   20:50   90.4    11    3.2   191      6.6   939.5    0.00       1    91.4
 148   21:00   90.1    11    2.4   181      4.2   939.5    0.00       1    91.4
 148   21:10   89.9    12    2.1   184      6.1   939.6    0.00       1    91.3
 148   21:20   89.9    12    2.3   190      4.2   939.6    0.00       2    91.3
 148   21:30   89.6    12    2.2   187      6.3   939.7    0.00       1    91.2
 148   21:40   89.6    12    3.1   191      5.8   939.8    0.00       1    91.1
 148   21:50   89.5    12    3.5   194      7.8   939.8    0.00       2    91.1
 148   22:00   89.3    12    3.1   197      7.5   939.8    0.00       2    91.0
 148   22:10   89.0    12    3.3   188      6.1   939.8    0.00       2    90.9
 148   22:20   88.6    12    3.3   179      5.8   939.7    0.00       2    90.8
 148   22:30   87.9    12    5.0   177      8.7   939.8    0.00       1    90.8
 148   22:40   87.2    12    4.1   188      9.1   939.8    0.00       1    90.7
 148   22:50   87.2    12    3.8   193      8.1   939.8    0.00       1    90.6
 148   23:00   87.3    12    3.7   188      7.2   939.8    0.00       1    90.6
 148   23:10   87.0    12    3.4   180      6.2   939.9    0.00       2    90.5
 148   23:20   86.9    12    3.7   190      8.4   939.8    0.00       2    90.4
 148   23:30   87.1    12    4.4   199      8.4   939.8    0.00       2    90.3
 148   23:40   87.2    12    3.0   206      5.7   939.7    0.00       2    90.2
 148   23:50   87.0    12    3.3   206      7.6   939.6    0.00       2    90.2
 149    0:00   87.0    12    4.3   204      7.8   939.7    0.00       2    90.0
 149    0:10   86.7    12    4.2   206     10.7   939.7    0.00       2    89.9
 149    0:20   86.2    12    4.7   208      7.9   939.8    0.00       1    89.9
 149    0:30   85.8    13    2.7   204      6.6   939.8    0.00       1    89.8
 149    0:40   85.3    13    1.0    54      2.8   940.0    0.00       2    89.7
 149    0:50   84.4    14    0.6    51      3.0   940.1    0.00       2    89.6
 149    1:00   83.9    14    0.7    12      2.0   940.1    0.00       2    89.6
 149    1:10   83.7    14    0.6   348      2.0   940.2    0.00       1    89.5
 149    1:20   83.1    14    0.0   312      0.1   940.3    0.00       2    89.4
 149    1:30   82.2    16    0.0     0      0.0   940.2    0.00       2    89.3
 149    1:40   81.4    16    0.3   355      2.4   940.3    0.00       0    89.3
 149    1:50   80.5    18    0.0     0      0.0   940.3    0.00       0    89.2
 149    2:00   80.1    19    0.5   343      1.8   940.3    0.00       0    89.1
 149    2:10   80.4    20    0.3     4      2.0   940.3    0.00       1    89.0
 149    2:20   80.2    20    1.3   346      2.3   940.4    0.00       0    88.9
 149    2:30   79.8    20    0.3   352      2.3   940.5    0.00       0    88.8
 149    2:40   78.9    22    0.8    15      2.7   940.6    0.00       0    88.7
 149    2:50   78.5    21    1.4   355      3.9   940.7    0.00       0    88.6
 149    3:00   78.5    19    1.2    30      2.5   940.7    0.00       0    88.6
 149    3:10   78.7    19    1.3    22      2.6   940.8    0.00       0    88.5
 149    3:20   78.7    20    0.6    27      1.8   940.8    0.00       0    88.4
 149    3:30   78.1    21    0.5    17      1.5   940.9    0.00       0    88.3
 149    3:40   78.0    22    1.1    15      2.0   941.0    0.00       0    88.2
 149    3:50   77.9    22    0.2    13      1.5   941.1    0.00       0    88.1
 149    4:00   77.7    22    0.9     9      1.8   941.2    0.00       0    88.0
 149    4:10   77.3    23    0.3    14      1.2   941.3    0.00       1    87.9
 149    4:20   76.8    24    0.0     0      0.0   941.5    0.00       3    87.8
 149    4:30   76.4    24    0.0     0      0.0   941.6    0.00       4    87.7
 149    4:40   76.2    26    0.0    10      0.9   941.7    0.00       5    87.6
 149    4:50   75.8    26    0.0     0      0.0   941.9    0.00      13    87.5
 149    5:00   76.1    26    0.0     0      0.0   942.0    0.00      25    87.4
 149    5:10   77.0    26    0.2    15      1.6   942.1    0.00      25    87.2
 149    5:20   77.8    24    0.1     2      1.0   942.4    0.00      31    87.1
 149    5:30   78.0    24    0.0     0      0.0   942.6    0.00      32    87.0
 149    5:40   78.1    21    0.0     0      0.0   942.7    0.00      32    86.9
 149    5:50   79.1    20    1.3     4      2.3   942.8    0.00      34    86.8
 149    6:00   79.8    20    0.1    13      1.0   942.9    0.00      38    86.7
 149    6:10   79.6    20    0.0     0      0.0   943.0    0.00      39    86.6
 149    6:20   79.6    19    0.0   316      0.3   943.0    0.00      39    86.6
 149    6:30   80.0    18    0.0     0      0.0   943.1    0.00      41    86.5
 149    6:40   80.9    18    0.0     0      0.0   943.2    0.00      46    86.3
 149    6:50   81.7    18    0.4    27      2.3   943.2    0.00      46    86.3
 149    7:00   82.5    19    1.3    60      3.9   943.2    0.00      46    86.1
 149    7:10   82.8    20    0.8    60      3.2   943.2    0.00      49    86.0
 149    7:20   83.2    20    1.6    55      4.2   943.4    0.00      71    85.9
 149    7:30   83.6    21    1.1    54      3.7   943.5    0.00      66    85.9
 149    7:40   84.1    20    1.3    50      3.7   943.5    0.00     144    85.8
 149    7:50   84.4    20    1.2    56      4.1   943.6    0.00     110    85.7
 149    8:00   84.8    19    1.5    58      4.2   943.5    0.00     302    85.6
 149    8:10   85.1    18    0.8    44      3.2   943.6    0.00     472    85.5
 149    8:20   85.6    18    1.8    40      4.9   943.6    0.00     501    85.4
 149    8:30   86.4    17    0.6    55      3.0   943.6    0.00     643    85.4
 149    8:40   86.6    16    1.4    85      4.4   943.5    0.00     561    85.3
 149    8:50   87.4    15    1.9    44      4.8   943.5    0.00     582    85.2
 149    9:00   88.2    14    1.1    37      3.1   943.5    0.00     612    85.2
 149    9:10   89.0    13    1.3   329      3.6   943.5    0.00     859    85.2
 149    9:20   89.0    13    1.9   188      5.1   943.5    0.00     887    85.1
 149    9:30   90.4    12    1.2    52      3.4   943.5    0.00     912    85.0
 149    9:40   90.5    11    1.9   126      6.9   943.4    0.00     936    84.9
 149    9:50   91.3    11    1.4   192      4.0   943.4    0.00     956    84.9
 149   10:00   91.6    11    1.5   152      5.3   943.3    0.00     975    84.9
 149   10:10   92.2    11    1.5    40      4.8   943.3    0.00     993    84.8
 149   10:20   93.1    11    1.2   165      6.1   943.2    0.00    1009    84.8
 149   10:30   93.1    10    2.2   163      7.5   943.1    0.00    1023    84.7
 149   10:40   92.5    10    1.1    19      3.4   942.9    0.00    1036    84.7
 149   10:50   92.4    11    1.8    12      4.7   942.8    0.00    1047    84.7
 149   11:00   93.3    11    1.7   160      5.8   942.6    0.00    1055    84.7
 149   11:10   93.8    11    3.2   174      9.3   942.6    0.00    1063    84.7
 149   11:20   94.1    10    1.7   271      5.0   942.5    0.00    1070    84.8
 149   11:30   93.8    10    3.7   203      8.7   942.3    0.00    1076    84.8
 149   11:40   93.9    10    2.1   204      5.8   942.2    0.00    1077    84.9
 149   11:50   94.8    10    2.2    27      6.4   942.1    0.00    1078    85.0
 149   12:00   94.6    10    2.4   328      4.6   942.0    0.00    1080    85.2
 149   12:10   95.4    10    2.2    41      4.9   941.9    0.00    1078    85.4
 149   12:20   96.2    10    1.8   230      5.1   941.7    0.00    1076    85.5
 149   12:30   96.6    10    3.1   184      8.4   941.6    0.00    1071    85.7
 149   12:40   96.3    10    2.0   209      5.0   941.4    0.00    1065    85.9
 149   12:50   97.9     9    1.7    39      4.8   941.3    0.00    1056    86.1
 149   13:00   97.8     9    1.4    34      4.6   941.1    0.00    1046    86.3
 149   13:10   98.9     9    2.0   179      6.2   940.9    0.00    1033    86.5
 149   13:20   98.2     9    3.0    52      6.5   940.6    0.00    1019    86.8
 149   13:30   97.6     9    2.5    92      5.6   940.5    0.00    1004    87.0
 149   13:40   98.8     9    3.1    53      6.9   940.3    0.00     988    87.2
 149   13:50   99.1     9    3.8   179      8.4   940.2    0.00     968    87.5
 149   14:00   98.8     9    2.4   184      7.1   940.0    0.00     948    87.7
 149   14:10   98.8     9    2.4   173      5.8   939.9    0.00     925    88.0

Return to Las Vegas, Nevada graphs page.


Western Regional Climate Center,wrcc@dri.edu